createdAt,value
2018-03-11T00:00:11.908Z,7.00
2018-03-11T00:01:18.404Z,8.10
2018-03-11T00:02:24.696Z,8.38
2018-03-11T00:03:30.545Z,9.13
2018-03-11T00:04:36.676Z,7.60
2018-03-11T00:05:43.604Z,8.30
2018-03-11T00:06:49.781Z,8.02
2018-03-11T00:07:55.902Z,8.65
2018-03-11T00:09:02.022Z,9.10
2018-03-11T00:10:08.240Z,9.18
2018-03-11T00:11:14.362Z,9.55
2018-03-11T00:12:20.536Z,8.75
2018-03-11T00:13:26.419Z,8.10
2018-03-11T00:14:32.565Z,8.07
2018-03-11T00:15:38.646Z,8.40
2018-03-11T00:16:44.742Z,8.48
2018-03-11T00:17:51.123Z,8.50
2018-03-11T00:18:57.005Z,7.65
2018-03-11T00:20:03.176Z,8.73
2018-03-11T00:21:08.848Z,7.80
2018-03-11T00:22:14.983Z,8.00
2018-03-11T00:23:20.840Z,7.60
2018-03-11T00:24:26.968Z,6.82
2018-03-11T00:25:33.871Z,7.30
2018-03-11T00:26:41.011Z,7.37
2018-03-11T00:27:47.295Z,7.00
2018-03-11T00:28:53.390Z,7.62
2018-03-11T00:30:01.415Z,7.90
2018-03-11T00:31:07.764Z,7.18
2018-03-11T00:32:13.924Z,6.90
2018-03-11T00:33:20.113Z,7.28
2018-03-11T00:34:26.252Z,7.87
2018-03-11T00:35:32.389Z,7.12
2018-03-11T00:36:38.481Z,7.20
2018-03-11T00:37:44.623Z,7.05
2018-03-11T00:38:50.716Z,7.55
2018-03-11T00:39:56.822Z,8.55
2018-03-11T00:41:03.217Z,6.85
2018-03-11T00:42:09.370Z,7.50
2018-03-11T00:43:15.571Z,7.87
2018-03-11T00:44:21.930Z,7.62
2018-03-11T00:45:28.048Z,7.65
2018-03-11T00:46:34.182Z,8.50
2018-03-11T00:47:40.322Z,7.28
2018-03-11T00:48:46.432Z,7.53
2018-03-11T00:49:52.569Z,8.02
2018-03-11T00:50:58.758Z,7.30
2018-03-11T00:52:04.936Z,7.93
2018-03-11T00:53:11.078Z,7.25
2018-03-11T00:54:17.557Z,7.62
2018-03-11T00:55:23.670Z,7.15
2018-03-11T00:56:29.779Z,7.20
2018-03-11T00:57:36.016Z,7.15
2018-03-11T00:58:42.154Z,6.82
2018-03-11T00:59:48.291Z,7.15
2018-03-11T01:00:55.360Z,7.78
2018-03-11T01:02:01.512Z,7.40
2018-03-11T01:03:07.652Z,7.20
2018-03-11T01:04:13.813Z,6.95
2018-03-11T01:05:19.632Z,7.00
2018-03-11T01:06:25.785Z,7.28
2018-03-11T01:07:31.661Z,7.25
2018-03-11T01:08:40.061Z,6.82
2018-03-11T01:09:46.204Z,8.20
2018-03-11T01:10:52.392Z,7.70
2018-03-11T01:11:58.582Z,7.28
2018-03-11T01:13:04.722Z,6.60
2018-03-11T01:14:10.593Z,7.90
2018-03-11T01:15:17.794Z,7.45
2018-03-11T01:16:24.205Z,7.97
2018-03-11T01:17:30.303Z,8.00
2018-03-11T01:18:36.436Z,8.07
2018-03-11T01:19:42.545Z,8.35
2018-03-11T01:20:48.796Z,7.00
2018-03-11T01:21:54.983Z,7.87
2018-03-11T01:23:01.173Z,7.90
2018-03-11T01:24:07.332Z,7.60
2018-03-11T01:25:13.440Z,8.10
2018-03-11T01:26:19.571Z,8.52
2018-03-11T01:27:25.741Z,7.20
2018-03-11T01:28:32.794Z,8.05
2018-03-11T01:29:38.931Z,7.95
2018-03-11T01:30:45.089Z,8.93
2018-03-11T01:31:52.068Z,8.55
2018-03-11T01:32:58.214Z,9.30
2018-03-11T01:34:06.421Z,8.52
2018-03-11T01:35:12.544Z,8.35
2018-03-11T01:36:18.724Z,8.20
2018-03-11T01:37:24.908Z,8.32
2018-03-11T01:38:31.018Z,9.23
2018-03-11T01:39:38.358Z,8.90
2018-03-11T01:40:44.485Z,8.50
2018-03-11T01:41:51.026Z,9.02
2018-03-11T01:42:57.184Z,8.70
2018-03-11T01:44:05.182Z,9.77
2018-03-11T01:45:10.929Z,8.45
2018-03-11T01:46:17.075Z,9.80
2018-03-11T01:47:24.074Z,8.32
2018-03-11T01:48:30.200Z,9.50
2018-03-11T01:49:36.320Z,8.65
2018-03-11T01:50:42.461Z,8.75
2018-03-11T01:51:48.689Z,7.28
2018-03-11T01:53:11.133Z,8.43
2018-03-11T01:54:17.233Z,8.40
2018-03-11T01:55:24.265Z,9.48
2018-03-11T01:56:30.416Z,8.70
2018-03-11T01:57:36.569Z,8.80
2018-03-11T01:58:42.715Z,8.57
2018-03-11T01:59:48.816Z,8.82
2018-03-11T02:00:54.973Z,8.27
2018-03-11T02:02:00.119Z,7.93
2018-03-11T02:03:06.249Z,8.95
2018-03-11T02:04:12.449Z,8.95
2018-03-11T02:05:18.544Z,9.00
2018-03-11T02:06:24.674Z,8.88
2018-03-11T02:07:30.823Z,8.15
2018-03-11T02:08:36.972Z,8.90
2018-03-11T02:09:43.165Z,8.85
2018-03-11T02:10:49.095Z,8.75
2018-03-11T02:11:55.259Z,9.65
2018-03-11T02:13:01.434Z,9.50
2018-03-11T02:14:07.650Z,8.32
2018-03-11T02:15:13.759Z,8.32
2018-03-11T02:16:19.861Z,8.70
2018-03-11T02:17:28.845Z,8.95
2018-03-11T02:18:34.642Z,9.20
2018-03-11T02:19:40.153Z,8.80
2018-03-11T02:20:46.359Z,9.90
2018-03-11T02:21:52.491Z,10.18
2018-03-11T02:22:58.635Z,9.30
2018-03-11T02:24:04.488Z,8.88
2018-03-11T02:25:10.610Z,9.23
2018-03-11T02:26:16.768Z,10.70
2018-03-11T02:27:23.876Z,8.95
2018-03-11T02:28:30.532Z,8.77
2018-03-11T02:29:36.446Z,9.32
2018-03-11T02:30:42.547Z,8.80
2018-03-11T02:31:48.625Z,8.93
2018-03-11T02:32:54.761Z,10.82
2018-03-11T02:34:00.983Z,9.27
2018-03-11T02:35:07.194Z,9.68
2018-03-11T02:36:13.097Z,10.00
2018-03-11T02:37:18.981Z,10.07
2018-03-11T02:38:25.177Z,10.98
2018-03-11T02:39:31.306Z,10.40
2018-03-11T02:40:37.480Z,10.07
2018-03-11T02:41:43.700Z,10.40
2018-03-11T02:42:49.821Z,10.70
2018-03-11T02:43:55.995Z,10.38
2018-03-11T02:45:02.145Z,11.77
2018-03-11T02:46:08.349Z,11.52
2018-03-11T02:47:14.242Z,11.88
2018-03-11T02:48:21.365Z,10.32
2018-03-11T02:49:27.484Z,11.38
2018-03-11T02:50:33.678Z,11.43
2018-03-11T02:51:39.846Z,11.23
2018-03-11T02:52:46.004Z,11.85
2018-03-11T02:53:52.156Z,10.38
2018-03-11T02:54:58.583Z,9.68
2018-03-11T02:56:04.362Z,9.20
2018-03-11T02:57:10.505Z,9.77
2018-03-11T02:58:16.645Z,11.25
2018-03-11T02:59:23.074Z,10.38
2018-03-11T03:00:29.186Z,10.85
2018-03-11T03:01:35.345Z,11.43
2018-03-11T03:02:41.543Z,10.85
2018-03-11T03:03:47.686Z,10.73
2018-03-11T03:04:53.857Z,10.38
2018-03-11T03:05:59.988Z,10.45
2018-03-11T03:07:06.177Z,10.75
2018-03-11T03:08:12.006Z,10.10
2018-03-11T03:09:17.872Z,10.93
2018-03-11T03:10:23.984Z,10.05
2018-03-11T03:11:29.886Z,10.30
2018-03-11T03:12:35.854Z,10.77
2018-03-11T03:13:41.683Z,10.30
2018-03-11T03:14:48.502Z,10.75
2018-03-11T03:15:54.697Z,10.90
2018-03-11T03:17:00.545Z,10.15
2018-03-11T03:18:07.117Z,9.45
2018-03-11T03:19:13.245Z,8.18
2018-03-11T03:20:19.345Z,8.85
2018-03-11T03:21:25.528Z,10.10
2018-03-11T03:22:31.653Z,9.32
2018-03-11T03:23:37.803Z,9.20
2018-03-11T03:24:43.977Z,9.63
2018-03-11T03:25:50.152Z,8.85
2018-03-11T03:26:56.293Z,9.15
2018-03-11T03:28:02.460Z,8.60
2018-03-11T03:29:08.630Z,9.25
2018-03-11T03:30:14.847Z,9.45
2018-03-11T03:31:20.956Z,8.80
2018-03-11T03:32:27.085Z,8.85
2018-03-11T03:33:33.236Z,8.77
2018-03-11T03:34:39.733Z,8.73
2018-03-11T03:35:45.853Z,8.90
2018-03-11T03:36:52.009Z,8.60
2018-03-11T03:37:59.058Z,8.55
2018-03-11T03:39:04.507Z,8.32
2018-03-11T03:40:10.673Z,8.13
2018-03-11T03:41:16.853Z,8.40
2018-03-11T03:42:23.014Z,7.85
2018-03-11T03:43:30.133Z,8.45
2018-03-11T03:44:36.339Z,8.10
2018-03-11T03:45:42.494Z,8.85
2018-03-11T03:46:48.680Z,8.30
2018-03-11T03:47:55.142Z,7.93
2018-03-11T03:49:01.283Z,9.40
2018-03-11T03:50:07.399Z,8.80
2018-03-11T03:51:13.568Z,8.68
2018-03-11T03:52:20.521Z,8.27
2018-03-11T03:53:26.668Z,8.10
2018-03-11T03:54:32.817Z,8.55
2018-03-11T03:55:39.029Z,9.70
2018-03-11T03:56:44.823Z,8.73
2018-03-11T03:57:51.043Z,8.25
2018-03-11T03:58:57.449Z,8.55
2018-03-11T04:00:08.554Z,8.10
2018-03-11T04:01:14.661Z,8.20
2018-03-11T04:02:20.785Z,7.97
2018-03-11T04:03:26.900Z,7.43
2018-03-11T04:04:33.048Z,8.18
2018-03-11T04:05:39.200Z,8.48
2018-03-11T04:06:46.207Z,8.50
2018-03-11T04:07:52.315Z,9.05
2018-03-11T04:08:58.184Z,10.52
2018-03-11T04:10:03.629Z,9.40
2018-03-11T04:11:09.834Z,9.60
2018-03-11T04:12:16.028Z,11.12
2018-03-11T04:13:22.224Z,9.20
2018-03-11T04:14:28.437Z,9.32
2018-03-11T04:15:34.654Z,9.55
2018-03-11T04:16:40.812Z,9.90
2018-03-11T04:17:46.717Z,9.80
2018-03-11T04:18:52.604Z,11.48
2018-03-11T04:19:59.632Z,11.60
2018-03-11T04:21:05.832Z,11.38
2018-03-11T04:22:13.110Z,12.52
2018-03-11T04:23:19.347Z,12.32
2018-03-11T04:24:25.609Z,12.20
2018-03-11T04:25:31.796Z,11.90
2018-03-11T04:26:38.017Z,12.90
2018-03-11T04:27:44.163Z,12.60
2018-03-11T04:28:50.348Z,12.52
2018-03-11T04:29:56.491Z,12.32
2018-03-11T04:31:02.658Z,12.90
2018-03-11T04:32:08.795Z,12.10
2018-03-11T04:33:14.975Z,11.02
2018-03-11T04:34:21.179Z,11.40
2018-03-11T04:35:27.328Z,12.63
2018-03-11T04:36:34.380Z,13.45
2018-03-11T04:37:40.534Z,12.80
2018-03-11T04:38:46.753Z,13.70
2018-03-11T04:39:52.922Z,12.35
2018-03-11T04:40:59.055Z,13.30
2018-03-11T04:42:10.364Z,12.93
2018-03-11T04:43:16.547Z,14.40
2018-03-11T04:44:22.714Z,14.63
2018-03-11T04:45:28.606Z,12.82
2018-03-11T04:46:34.739Z,14.65
2018-03-11T04:47:42.779Z,13.62
2018-03-11T04:48:48.913Z,15.40
2018-03-11T04:49:55.384Z,14.73
2018-03-11T04:51:01.550Z,14.00
2018-03-11T04:52:07.785Z,13.50
2018-03-11T04:53:13.962Z,14.43
2018-03-11T04:54:20.076Z,13.45
2018-03-11T04:55:26.253Z,14.00
2018-03-11T04:56:32.481Z,13.60
2018-03-11T04:57:38.723Z,13.00
2018-03-11T04:58:45.805Z,13.32
2018-03-11T04:59:51.988Z,14.45
2018-03-11T05:00:58.174Z,13.85
2018-03-11T05:02:04.486Z,13.05
2018-03-11T05:03:10.603Z,12.85
2018-03-11T05:04:16.747Z,14.52
2018-03-11T05:05:22.890Z,14.82
2018-03-11T05:06:29.257Z,13.88
2018-03-11T05:07:35.406Z,15.30
2018-03-11T05:08:41.576Z,13.32
2018-03-11T05:09:47.938Z,14.30
2018-03-11T05:10:54.087Z,14.13
2018-03-11T05:12:00.214Z,14.55
2018-03-11T05:13:06.470Z,13.90
2018-03-11T05:14:12.639Z,14.63
2018-03-11T05:15:18.833Z,14.65
2018-03-11T05:16:25.017Z,14.77
2018-03-11T05:17:31.152Z,13.82
2018-03-11T05:18:37.340Z,13.52
2018-03-11T05:19:43.448Z,14.00
2018-03-11T05:20:49.622Z,13.50
2018-03-11T05:21:56.125Z,13.57
2018-03-11T05:23:02.247Z,14.60
2018-03-11T05:24:08.368Z,15.57
2018-03-11T05:25:14.519Z,15.48
2018-03-11T05:26:21.551Z,15.02
2018-03-11T05:27:28.632Z,15.65
2018-03-11T05:28:34.823Z,15.25
2018-03-11T05:29:41.017Z,14.85
2018-03-11T05:30:47.232Z,13.60
2018-03-11T05:31:53.399Z,13.45
2018-03-11T05:32:59.556Z,15.55
2018-03-11T05:34:05.702Z,14.75
2018-03-11T05:35:11.879Z,15.00
2018-03-11T05:36:18.061Z,16.17
2018-03-11T05:37:24.449Z,15.45
2018-03-11T05:38:31.544Z,15.32
2018-03-11T05:39:37.727Z,15.85
2018-03-11T05:40:43.863Z,15.63
2018-03-11T05:41:50.303Z,15.98
2018-03-11T05:42:57.444Z,16.00
2018-03-11T05:44:03.691Z,14.70
2018-03-11T05:45:09.865Z,16.25
2018-03-11T05:46:17.033Z,15.00
2018-03-11T05:47:23.180Z,15.13
2018-03-11T05:48:29.390Z,16.58
2018-03-11T05:49:35.536Z,15.40
2018-03-11T05:50:41.689Z,16.10
2018-03-11T05:51:48.633Z,17.30
2018-03-11T05:52:54.869Z,17.60
2018-03-11T05:54:02.862Z,16.98
2018-03-11T05:55:09.012Z,16.40
2018-03-11T05:56:15.334Z,17.05
2018-03-11T05:57:21.496Z,16.75
2018-03-11T05:58:27.642Z,17.27
2018-03-11T05:59:33.801Z,17.45
2018-03-11T06:00:39.935Z,15.30
2018-03-11T06:01:46.091Z,17.12
2018-03-11T06:02:52.210Z,16.05
2018-03-11T06:03:59.248Z,15.50
2018-03-11T06:05:05.397Z,17.42
2018-03-11T06:06:11.701Z,16.83
2018-03-11T06:07:18.793Z,16.45
2018-03-11T06:08:24.930Z,17.20
2018-03-11T06:09:31.100Z,17.60
2018-03-11T06:10:37.123Z,17.00
2018-03-11T06:11:43.459Z,17.83
2018-03-11T06:12:49.618Z,16.90
2018-03-11T06:13:55.761Z,16.67
2018-03-11T06:15:02.014Z,16.80
2018-03-11T06:16:08.186Z,16.52
2018-03-11T06:17:14.376Z,15.95
2018-03-11T06:18:21.506Z,17.42
2018-03-11T06:19:27.642Z,17.08
2018-03-11T06:20:33.860Z,17.65
2018-03-11T06:21:40.062Z,17.20
2018-03-11T06:22:46.263Z,16.52
2018-03-11T06:23:52.401Z,16.75
2018-03-11T06:24:58.635Z,18.10
2018-03-11T06:26:04.774Z,18.00
2018-03-11T06:27:10.911Z,16.90
2018-03-11T06:28:17.032Z,17.05
2018-03-11T06:29:24.369Z,17.55
2018-03-11T06:30:30.953Z,17.17
2018-03-11T06:31:37.124Z,17.10
2018-03-11T06:32:43.273Z,17.73
2018-03-11T06:33:50.067Z,17.85
2018-03-11T06:34:56.263Z,17.77
2018-03-11T06:36:02.437Z,15.82
2018-03-11T06:37:08.279Z,16.73
2018-03-11T06:38:21.500Z,16.83
2018-03-11T06:39:28.790Z,17.15
2018-03-11T06:40:37.312Z,18.37
2018-03-11T06:41:45.366Z,16.73
2018-03-11T06:42:53.384Z,15.45
2018-03-11T06:44:00.885Z,17.33
2018-03-11T06:45:10.547Z,16.10
2018-03-11T06:46:18.440Z,16.02
2018-03-11T06:47:26.866Z,17.02
2018-03-11T06:48:33.942Z,17.85
2018-03-11T06:49:40.553Z,17.12
2018-03-11T06:50:46.980Z,16.52
2018-03-11T06:51:53.703Z,17.20
2018-03-11T06:53:02.019Z,17.90
2018-03-11T06:54:09.809Z,17.02
2018-03-11T06:55:16.012Z,17.05
2018-03-11T06:56:22.235Z,17.25
2018-03-11T06:57:28.574Z,17.08
2018-03-11T06:58:35.953Z,17.83
2018-03-11T06:59:42.829Z,18.00
2018-03-11T07:00:51.014Z,17.50
2018-03-11T07:01:57.529Z,16.50
2018-03-11T07:03:04.561Z,18.95
2018-03-11T07:04:10.988Z,18.12
2018-03-11T07:05:17.893Z,19.65
2018-03-11T07:06:24.872Z,18.12
2018-03-11T07:07:32.617Z,18.08
2018-03-11T07:08:39.596Z,16.80
2018-03-11T07:09:46.760Z,17.83
2018-03-11T07:10:53.408Z,18.42
2018-03-11T07:12:01.555Z,18.00
2018-03-11T07:13:08.718Z,17.45
2018-03-11T07:14:15.156Z,19.92
2018-03-11T07:15:22.118Z,16.70
2018-03-11T07:16:29.996Z,17.95
2018-03-11T07:17:36.666Z,18.52
2018-03-11T07:18:43.139Z,18.90
2018-03-11T07:19:49.591Z,17.25
2018-03-11T07:20:56.826Z,17.52
2018-03-11T07:22:03.705Z,19.75
2018-03-11T07:23:10.474Z,18.37
2018-03-11T07:24:17.151Z,20.15
2018-03-11T07:25:24.281Z,17.65
2018-03-11T07:26:32.496Z,19.00
2018-03-11T07:27:39.509Z,20.15
2018-03-11T07:28:46.385Z,19.33
2018-03-11T07:29:53.514Z,19.12
2018-03-11T07:31:00.100Z,20.50
2018-03-11T07:32:07.986Z,19.70
2018-03-11T07:33:14.756Z,19.50
2018-03-11T07:34:22.273Z,18.58
2018-03-11T07:35:29.202Z,18.50
2018-03-11T07:36:35.924Z,18.62
2018-03-11T07:37:44.135Z,20.08
2018-03-11T07:38:50.738Z,19.52
2018-03-11T07:39:58.291Z,18.92
2018-03-11T07:41:05.301Z,19.48
2018-03-11T07:42:13.015Z,18.75
2018-03-11T07:43:20.501Z,19.17
2018-03-11T07:44:27.440Z,19.45
2018-03-11T07:45:34.601Z,19.25
2018-03-11T07:46:41.467Z,19.90
2018-03-11T07:47:50.177Z,19.87
2018-03-11T07:48:56.732Z,20.00
2018-03-11T07:50:03.705Z,20.00
2018-03-11T07:51:10.368Z,20.45
2018-03-11T07:52:17.175Z,18.62
2018-03-11T07:53:24.030Z,20.45
2018-03-11T07:54:30.718Z,19.42
2018-03-11T07:55:38.075Z,20.23
2018-03-11T07:56:44.713Z,19.50
2018-03-11T07:57:51.634Z,19.00
2018-03-11T07:58:58.568Z,19.58
2018-03-11T08:00:04.785Z,19.00
2018-03-11T08:01:11.635Z,19.23
2018-03-11T08:02:18.401Z,19.70
2018-03-11T08:03:25.407Z,20.25
2018-03-11T08:04:31.924Z,20.35
2018-03-11T08:05:38.427Z,19.05
2018-03-11T08:06:44.663Z,18.30
2018-03-11T08:07:51.453Z,20.35
2018-03-11T08:08:58.481Z,18.50
2018-03-11T08:10:05.246Z,19.27
2018-03-11T08:11:11.961Z,19.08
2018-03-11T08:12:18.485Z,20.10
2018-03-11T08:13:25.618Z,19.00
2018-03-11T08:14:31.950Z,17.75
2018-03-11T08:15:38.378Z,19.42
2018-03-11T08:16:45.909Z,18.92
2018-03-11T08:17:52.550Z,18.65
2018-03-11T08:18:58.898Z,18.92
2018-03-11T08:20:04.691Z,19.37
2018-03-11T08:21:10.932Z,19.60
2018-03-11T08:22:17.153Z,19.23
2018-03-11T08:23:23.355Z,20.70
2018-03-11T08:24:29.552Z,19.60
2018-03-11T08:25:35.701Z,18.73
2018-03-11T08:26:41.833Z,21.17
2018-03-11T08:27:48.037Z,20.60
2018-03-11T08:28:54.180Z,19.73
2018-03-11T08:30:00.341Z,18.65
2018-03-11T08:31:06.321Z,21.37
2018-03-11T08:32:12.228Z,20.70
2018-03-11T08:33:18.425Z,19.92
2018-03-11T08:34:24.619Z,20.37
2018-03-11T08:35:30.761Z,20.20
2018-03-11T08:36:36.934Z,18.75
2018-03-11T08:37:42.882Z,20.60
2018-03-11T08:38:49.144Z,20.55
2018-03-11T08:39:55.349Z,20.55
2018-03-11T08:41:04.545Z,19.70
2018-03-11T08:42:10.439Z,19.25
2018-03-11T08:43:16.699Z,20.30
2018-03-11T08:44:22.896Z,21.85
2018-03-11T08:45:29.560Z,21.90
2018-03-11T08:46:35.856Z,20.50
2018-03-11T08:47:42.069Z,21.98
2018-03-11T08:48:48.273Z,19.83
2018-03-11T08:49:55.467Z,22.30
2018-03-11T08:51:02.704Z,20.20
2018-03-11T08:52:08.887Z,20.88
2018-03-11T08:53:15.149Z,19.90
2018-03-11T08:54:21.169Z,19.98
2018-03-11T08:55:27.444Z,20.23
2018-03-11T08:56:34.162Z,21.52
2018-03-11T08:57:40.380Z,20.83
2018-03-11T08:58:46.586Z,19.95
2018-03-11T08:59:52.810Z,20.50
2018-03-11T09:00:59.101Z,20.55
2018-03-11T09:02:05.039Z,19.50
2018-03-11T09:03:11.260Z,20.58
2018-03-11T09:04:17.510Z,19.98
2018-03-11T09:05:23.688Z,19.55
2018-03-11T09:06:30.268Z,20.58
2018-03-11T09:07:36.434Z,19.50
2018-03-11T09:08:42.592Z,19.15
2018-03-11T09:09:48.818Z,21.05
2018-03-11T09:10:55.064Z,20.17
2018-03-11T09:12:01.379Z,20.55
2018-03-11T09:13:09.424Z,21.80
2018-03-11T09:14:16.621Z,22.05
2018-03-11T09:15:23.140Z,20.00
2018-03-11T09:16:29.879Z,21.00
2018-03-11T09:17:36.913Z,19.30
2018-03-11T09:18:43.402Z,23.25
2018-03-11T09:19:50.065Z,20.80
2018-03-11T09:20:56.265Z,25.10
2018-03-11T09:22:03.019Z,23.58
2018-03-11T09:23:09.608Z,22.23
2018-03-11T09:24:17.185Z,19.60
2018-03-11T09:25:23.765Z,20.80
2018-03-11T09:26:30.761Z,20.65
2018-03-11T09:27:37.327Z,19.27
2018-03-11T09:28:45.082Z,20.85
2018-03-11T09:29:51.985Z,20.15
2018-03-11T09:30:59.240Z,18.12
2018-03-11T09:32:06.007Z,19.23
2018-03-11T09:33:13.239Z,17.80
2018-03-11T09:34:20.030Z,18.80
2018-03-11T09:35:26.246Z,18.55
2018-03-11T09:36:33.026Z,18.40
2018-03-11T09:37:39.980Z,18.60
2018-03-11T09:38:46.545Z,19.73
2018-03-11T09:39:53.519Z,21.30
2018-03-11T09:41:00.001Z,18.65
2018-03-11T09:42:06.513Z,19.70
2018-03-11T09:43:13.668Z,25.37
2018-03-11T09:44:20.723Z,20.58
2018-03-11T09:45:27.607Z,19.70
2018-03-11T09:46:35.718Z,17.85
2018-03-11T09:47:42.359Z,16.30
2018-03-11T09:48:49.061Z,15.52
2018-03-11T09:49:55.598Z,15.02
2018-03-11T09:51:02.581Z,13.70
2018-03-11T09:52:09.411Z,12.15
2018-03-11T09:53:16.350Z,13.38
2018-03-11T09:54:22.990Z,12.90
2018-03-11T09:55:29.760Z,12.60
2018-03-11T09:56:37.444Z,12.27
2018-03-11T09:57:43.643Z,14.13
2018-03-11T09:58:50.889Z,12.68
2018-03-11T09:59:57.882Z,11.98
2018-03-11T10:01:05.570Z,10.48
2018-03-11T10:02:12.425Z,10.38
2018-03-11T10:03:24.141Z,9.10
2018-03-11T10:04:31.750Z,9.45
2018-03-11T10:05:38.215Z,9.88
2018-03-11T10:06:44.833Z,8.85
2018-03-11T10:07:51.650Z,10.57
2018-03-11T10:08:58.392Z,11.38
2018-03-11T10:10:06.177Z,11.18
2018-03-11T10:11:13.266Z,10.95
2018-03-11T10:12:22.129Z,12.18
2018-03-11T10:13:29.515Z,12.80
2018-03-11T10:14:36.358Z,12.52
2018-03-11T10:15:44.080Z,18.45
2018-03-11T10:16:50.621Z,11.20
2018-03-11T10:17:57.743Z,11.45
2018-03-11T10:19:04.576Z,14.23
2018-03-11T10:20:11.101Z,12.20
2018-03-11T10:21:17.348Z,11.40
2018-03-11T10:22:23.834Z,9.95
2018-03-11T10:23:31.184Z,8.75
2018-03-11T10:24:38.774Z,9.88
2018-03-11T10:25:45.448Z,9.10
2018-03-11T10:26:53.074Z,9.93
2018-03-11T10:28:00.377Z,9.32
2018-03-11T10:29:06.729Z,11.60
2018-03-11T10:30:13.475Z,11.90
2018-03-11T10:31:20.048Z,12.50
2018-03-11T10:32:26.731Z,14.57
2018-03-11T10:33:33.127Z,13.40
2018-03-11T10:34:39.696Z,15.18
2018-03-11T10:35:46.661Z,14.15
2018-03-11T10:36:53.312Z,15.52
2018-03-11T10:38:00.405Z,14.45
2018-03-11T10:39:08.316Z,16.10
2018-03-11T10:40:15.370Z,15.52
2018-03-11T10:41:22.080Z,15.02
2018-03-11T10:42:28.947Z,15.82
2018-03-11T10:43:35.354Z,14.45
2018-03-11T10:44:41.564Z,14.25
2018-03-11T10:45:47.800Z,12.75
2018-03-11T10:46:54.046Z,12.52
2018-03-11T10:48:01.752Z,12.73
2018-03-11T10:49:08.001Z,12.55
2018-03-11T10:50:14.384Z,11.23
2018-03-11T10:51:20.639Z,11.05
2018-03-11T10:52:28.592Z,11.82
2018-03-11T10:53:34.844Z,13.02
2018-03-11T10:54:41.108Z,12.05
2018-03-11T10:55:47.694Z,12.85
2018-03-11T10:56:53.945Z,13.07
2018-03-11T10:58:00.386Z,14.25
2018-03-11T10:59:06.631Z,15.00
2018-03-11T11:00:12.834Z,14.65
2018-03-11T11:01:24.207Z,13.48
2018-03-11T11:02:37.096Z,14.63
2018-03-11T11:05:17.675Z,14.65
2018-03-11T11:06:23.912Z,15.52
2018-03-11T11:07:30.143Z,16.10
2018-03-11T11:08:36.793Z,15.80
2018-03-11T11:09:42.996Z,15.95
2018-03-11T11:10:49.216Z,15.70
2018-03-11T11:11:55.401Z,15.35
2018-03-11T11:13:01.647Z,15.75
2018-03-11T11:14:07.960Z,17.20
2018-03-11T11:15:15.111Z,16.83
2018-03-11T11:16:21.338Z,17.60
2018-03-11T11:17:27.523Z,17.05
2018-03-11T11:18:33.787Z,17.25
2018-03-11T11:19:39.973Z,18.08
2018-03-11T11:20:46.200Z,18.27
2018-03-11T11:21:52.409Z,18.62
2018-03-11T11:22:58.627Z,17.75
2018-03-11T11:24:04.853Z,16.85
2018-03-11T11:25:11.729Z,17.48
2018-03-11T11:26:17.913Z,18.20
2018-03-11T11:27:23.918Z,18.10
2018-03-11T11:28:31.056Z,18.15
2018-03-11T11:29:37.308Z,18.92
2018-03-11T11:30:43.595Z,18.70
2018-03-11T11:31:49.900Z,18.45
2018-03-11T11:32:56.137Z,18.30
2018-03-11T11:34:02.419Z,17.70
2018-03-11T11:35:08.945Z,17.25
2018-03-11T11:36:15.254Z,15.98
2018-03-11T11:37:21.594Z,16.27
2018-03-11T11:38:27.840Z,17.67
2018-03-11T11:39:34.204Z,17.00
2018-03-11T11:40:40.517Z,16.33
2018-03-11T11:41:46.800Z,17.60
2018-03-11T11:42:53.108Z,18.98
2018-03-11T11:43:59.378Z,17.37
2018-03-11T11:45:05.602Z,17.00
2018-03-11T11:46:12.412Z,17.37
2018-03-11T11:47:18.707Z,17.75
2018-03-11T11:48:25.518Z,16.23
2018-03-11T11:49:33.511Z,16.12
2018-03-11T11:50:39.716Z,15.70
2018-03-11T11:51:45.973Z,17.35
2018-03-11T11:52:52.262Z,16.40
2018-03-11T11:53:58.512Z,16.35
2018-03-11T11:55:10.885Z,15.63
2018-03-11T11:56:17.381Z,16.65
2018-03-11T11:57:24.505Z,16.65
2018-03-11T11:58:30.792Z,17.58
2018-03-11T11:59:37.025Z,16.65
2018-03-11T12:00:43.386Z,16.40
2018-03-11T12:01:49.791Z,17.52
2018-03-11T12:02:55.735Z,16.40
2018-03-11T12:04:01.998Z,16.77
2018-03-11T12:05:08.283Z,16.85
2018-03-11T12:06:15.472Z,16.05
2018-03-11T12:07:22.701Z,17.02
2018-03-11T12:08:28.848Z,15.60
2018-03-11T12:09:35.861Z,16.08
2018-03-11T12:10:42.544Z,15.35
2018-03-11T12:11:48.935Z,16.75
2018-03-11T12:12:55.178Z,15.95
2018-03-11T12:14:01.486Z,16.70
2018-03-11T12:15:08.186Z,16.33
2018-03-11T12:16:14.438Z,16.60
2018-03-11T12:17:21.716Z,16.12
2018-03-11T12:18:28.572Z,15.98
2018-03-11T12:19:35.654Z,16.67
2018-03-11T12:20:41.919Z,15.70
2018-03-11T12:21:48.253Z,15.70
2018-03-11T12:22:54.648Z,15.65
2018-03-11T12:24:01.405Z,15.32
2018-03-11T12:25:07.855Z,16.48
2018-03-11T12:26:14.487Z,15.68
2018-03-11T12:27:20.992Z,14.77
2018-03-11T12:28:27.310Z,15.38
2018-03-11T12:29:34.407Z,15.57
2018-03-11T12:30:40.798Z,15.35
2018-03-11T12:31:47.123Z,13.90
2018-03-11T12:32:53.431Z,15.73
2018-03-11T12:33:59.624Z,14.90
2018-03-11T12:35:05.816Z,14.70
2018-03-11T12:36:12.040Z,15.65
2018-03-11T12:37:18.251Z,14.55
2018-03-11T12:38:30.612Z,13.07
2018-03-11T12:39:36.828Z,14.75
2018-03-11T12:40:43.143Z,15.23
2018-03-11T12:41:49.793Z,13.95
2018-03-11T12:42:55.976Z,14.07
2018-03-11T12:44:02.254Z,13.20
2018-03-11T12:45:08.532Z,12.50
2018-03-11T12:46:15.617Z,13.35
2018-03-11T12:47:21.835Z,13.15
2018-03-11T12:48:28.059Z,13.20
2018-03-11T12:49:34.301Z,12.90
2018-03-11T12:50:40.169Z,12.85
2018-03-11T12:51:46.450Z,14.30
2018-03-11T12:52:52.706Z,13.75
2018-03-11T12:53:58.913Z,13.95
2018-03-11T12:55:05.289Z,14.57
2018-03-11T12:56:11.716Z,13.48
2018-03-11T12:57:18.062Z,13.80
2018-03-11T12:58:24.407Z,12.80
2018-03-11T12:59:30.597Z,13.10
2018-03-11T13:00:38.831Z,13.20
2018-03-11T13:01:45.073Z,13.38
2018-03-11T13:02:52.181Z,11.50
2018-03-11T13:03:58.401Z,12.95
2018-03-11T13:05:04.581Z,13.02
2018-03-11T13:06:11.053Z,12.10
2018-03-11T13:07:17.268Z,12.55
2018-03-11T13:08:23.473Z,13.32
2018-03-11T13:09:29.668Z,13.20
2018-03-11T13:10:35.898Z,12.18
2018-03-11T13:11:42.189Z,11.93
2018-03-11T13:12:48.858Z,11.10
2018-03-11T13:13:56.119Z,11.73
2018-03-11T13:15:02.335Z,11.82
2018-03-11T13:16:08.541Z,12.82
2018-03-11T13:17:14.830Z,12.25
2018-03-11T13:18:21.774Z,11.10
2018-03-11T13:19:28.653Z,11.45
2018-03-11T13:20:45.886Z,12.13
2018-03-11T13:21:51.870Z,12.20
2018-03-11T13:22:58.183Z,11.98
2018-03-11T13:24:03.699Z,12.23
2018-03-11T13:25:10.137Z,13.05
2018-03-11T13:26:16.376Z,12.02
2018-03-11T13:27:22.299Z,17.58
2018-03-11T13:28:39.170Z,24.63
2018-03-11T13:29:45.169Z,18.12
2018-03-11T13:30:52.894Z,13.70
2018-03-11T13:32:11.009Z,12.68
2018-03-11T13:33:28.139Z,11.02
2018-03-11T13:34:34.064Z,10.52
2018-03-11T13:35:40.284Z,10.98
2018-03-11T13:36:46.463Z,12.65
2018-03-11T13:37:51.942Z,14.52
2018-03-11T13:39:09.181Z,17.95
2018-03-11T13:41:55.476Z,12.85
2018-03-11T13:43:01.700Z,13.00
2018-03-11T13:44:07.720Z,27.98
2018-03-11T13:45:25.031Z,23.12
2018-03-11T13:46:47.342Z,16.33
2018-03-11T13:47:52.996Z,13.85
2018-03-11T13:48:59.397Z,14.18
2018-03-11T13:50:05.313Z,22.45
2018-03-11T13:51:11.506Z,26.98
2018-03-11T13:52:28.490Z,20.12
2018-03-11T13:53:45.513Z,25.25
2018-03-11T13:54:51.759Z,18.67
2018-03-11T13:55:57.970Z,16.15
2018-03-11T13:57:15.156Z,16.10
2018-03-11T13:58:32.065Z,19.58
2018-03-11T13:59:38.010Z,14.32
2018-03-11T14:00:44.245Z,10.32
2018-03-11T14:01:50.488Z,10.65
2018-03-11T14:02:56.780Z,9.15
2018-03-11T14:04:03.048Z,8.50
2018-03-11T14:05:09.228Z,8.98
2018-03-11T14:06:15.471Z,8.88
2018-03-11T14:07:21.397Z,8.48
2018-03-11T14:08:27.580Z,8.95
2018-03-11T14:09:33.748Z,8.60
2018-03-11T14:10:39.960Z,9.65
2018-03-11T14:11:46.177Z,9.88
2018-03-11T14:12:52.474Z,8.80
2018-03-11T14:13:58.684Z,8.82
2018-03-11T14:15:04.212Z,9.77
2018-03-11T14:16:10.380Z,8.70
2018-03-11T14:17:16.576Z,9.45
2018-03-11T14:18:22.738Z,8.13
2018-03-11T14:19:29.326Z,7.28
2018-03-11T14:20:35.821Z,9.32
2018-03-11T14:21:42.011Z,10.82
2018-03-11T14:22:49.215Z,12.05
2018-03-11T14:23:56.417Z,13.20
2018-03-11T14:25:02.657Z,8.95
2018-03-11T14:26:08.888Z,9.73
2018-03-11T14:27:15.145Z,9.75
2018-03-11T14:28:21.315Z,8.60
2018-03-11T14:29:27.512Z,7.87